Terminal Aerodrome Forecast
Issued by NWS Shreveport, LA

Home | Current Version | Previous Version | Text Only | Print | Product List | Glossary On
Versions: 1 2 3 4 5 6 7 8 9 10 11 12 13 14 15 16
000
FTUS44 KSHV 212052 AAA
TAFMLU
TAF AMD
KMLU 212052Z 2121/2218 14008KT P6SM VCTS BKN070CB
      TEMPO 2121/2124 VRB15G25KT 3SM TSRA
     FM220200 14005KT P6SM SCT045 SCT080 BKN250
     FM220500 15008KT P6SM BKN015
     FM221200 19006KT P6SM VCTS BKN015CB
      TEMPO 2212/2216 VRB15G25KT 2SM TSRA BKN010CB
     FM221600 22007KT 6SM -RA OVC140=

USA.gov is the U.S. government's official web portal to all federal, state and local government web resources and services.